Stockton Springs, Maine
Current Conditions -  °F | °C
As of 3:41 PM on Monday 24 Nov 2014 (Local Time) from KBGR Reporting Station
Light Rain Light Rain  
Wind Chill: 57°   Ceiling: 500
Heat Index: 57°   Visibility: 1.7mi
Dew Point: 56°   Wind: 17mph
Humidity: 96%   Direction: 180°S
Pressure: 29.57"   Gusts: NA
Location:  44.49°N, 68.86°W
Report Text: KBGR 242041Z 18015KT 1 3/4SM -RA BR OVC005 14/13 A2957 RMK AO2 DZB16E40RAB40 P0000 T01390133
Loading
Personal Weather Stations






























Interactive Weather Map New forecast layout! Learn more

10-Day Weather Forecast

Advertisements
Track Severe Weather on mobile